createdAt,value
2018-03-15T00:01:55.727Z,55.05
2018-03-15T00:04:23.716Z,54.29
2018-03-15T00:06:51.669Z,52.88
2018-03-15T00:09:19.635Z,53.09
2018-03-15T00:11:47.590Z,53.15
2018-03-15T00:14:15.525Z,53.84
2018-03-15T00:16:43.400Z,52.91
2018-03-15T00:19:11.313Z,53.26
2018-03-15T00:21:39.258Z,52.47
2018-03-15T00:24:07.231Z,52.14
2018-03-15T00:26:35.218Z,51.79
2018-03-15T00:29:03.185Z,54.86
2018-03-15T00:31:31.141Z,55.04
2018-03-15T00:33:59.086Z,55.80
2018-03-15T00:36:27.120Z,54.23
2018-03-15T00:38:55.077Z,52.93
2018-03-15T00:41:23.031Z,52.81
2018-03-15T00:43:51.002Z,51.61
2018-03-15T00:46:19.123Z,52.15
2018-03-15T00:48:47.108Z,51.74
2018-03-15T00:51:15.010Z,52.27
2018-03-15T00:53:42.938Z,51.66
2018-03-15T00:56:10.902Z,53.08
2018-03-15T00:58:38.817Z,54.43
2018-03-15T01:01:06.742Z,55.57
2018-03-15T01:03:34.714Z,58.10
2018-03-15T01:06:02.655Z,58.12
2018-03-15T01:08:30.509Z,59.72
2018-03-15T01:10:58.448Z,60.38
2018-03-15T01:13:26.325Z,62.26
2018-03-15T01:15:54.240Z,61.71
2018-03-15T01:18:22.272Z,59.88
2018-03-15T01:20:50.318Z,59.45
2018-03-15T01:23:18.207Z,59.28
2018-03-15T01:25:46.186Z,59.19
2018-03-15T01:28:14.122Z,57.37
2018-03-15T01:30:42.082Z,56.48
2018-03-15T01:33:10.010Z,58.18
2018-03-15T01:35:37.840Z,58.26
2018-03-15T01:38:05.768Z,56.86
2018-03-15T01:40:33.737Z,58.80
2018-03-15T01:43:01.624Z,57.94
2018-03-15T01:45:29.577Z,58.14
2018-03-15T01:47:57.815Z,57.44
2018-03-15T01:50:25.750Z,58.50
2018-03-15T01:52:53.810Z,59.25
2018-03-15T01:55:21.725Z,58.52
2018-03-15T01:57:49.690Z,58.76
2018-03-15T02:00:17.659Z,57.83
2018-03-15T02:02:45.605Z,58.58
2018-03-15T02:05:13.494Z,57.12
2018-03-15T02:07:41.432Z,56.90
2018-03-15T02:10:09.389Z,56.76
2018-03-15T02:12:37.334Z,57.15
2018-03-15T02:15:05.309Z,57.84
2018-03-15T02:17:33.246Z,57.11
2018-03-15T02:20:01.182Z,57.77
2018-03-15T02:22:29.101Z,59.01
2018-03-15T02:24:56.949Z,58.52
2018-03-15T02:27:24.933Z,57.92
2018-03-15T02:29:52.862Z,57.54
2018-03-15T02:32:20.843Z,58.62
2018-03-15T02:34:48.807Z,59.06
2018-03-15T02:37:16.779Z,59.63
2018-03-15T02:39:44.727Z,60.02
2018-03-15T02:42:12.676Z,59.23
2018-03-15T02:44:40.556Z,58.57
2018-03-15T02:47:08.509Z,59.03
2018-03-15T02:49:37.072Z,58.34
2018-03-15T02:52:05.037Z,57.79
2018-03-15T02:54:32.993Z,57.71
2018-03-15T02:57:00.917Z,58.49
2018-03-15T02:59:28.943Z,57.53
2018-03-15T03:01:56.888Z,58.11
2018-03-15T03:04:24.810Z,59.09
2018-03-15T03:06:52.732Z,58.00
2018-03-15T03:09:20.684Z,58.22
2018-03-15T03:11:48.629Z,57.99
2018-03-15T03:14:16.570Z,58.07
2018-03-15T03:16:44.534Z,57.92
2018-03-15T03:19:12.514Z,58.16
2018-03-15T03:21:40.444Z,58.12
2018-03-15T03:24:08.437Z,59.75
2018-03-15T03:26:36.355Z,58.93
2018-03-15T03:29:04.295Z,59.62
2018-03-15T03:31:32.339Z,58.55
2018-03-15T03:34:00.285Z,60.68
2018-03-15T03:36:28.335Z,60.90
2018-03-15T03:38:56.363Z,59.97
2018-03-15T03:41:24.340Z,59.55
2018-03-15T03:43:52.253Z,60.52
2018-03-15T03:46:20.143Z,59.46
2018-03-15T03:48:48.168Z,59.03
2018-03-15T03:51:16.331Z,59.93
2018-03-15T03:53:44.304Z,60.78
2018-03-15T03:56:12.259Z,60.81
2018-03-15T03:58:40.237Z,60.36
2018-03-15T04:01:08.189Z,60.59
2018-03-15T04:03:36.167Z,60.30
2018-03-15T04:06:04.119Z,60.27
2018-03-15T04:08:32.081Z,60.35
2018-03-15T04:10:59.998Z,60.86
2018-03-15T04:13:27.957Z,60.19
2018-03-15T04:15:55.881Z,60.63
2018-03-15T04:18:23.849Z,59.70
2018-03-15T04:20:51.814Z,60.88
2018-03-15T04:23:19.789Z,62.73
2018-03-15T04:25:47.666Z,61.01
2018-03-15T04:28:15.614Z,60.78
2018-03-15T04:30:43.531Z,61.21
2018-03-15T04:33:11.491Z,61.06
2018-03-15T04:35:39.479Z,59.91
2018-03-15T04:38:07.492Z,62.02
2018-03-15T04:40:35.388Z,61.56
2018-03-15T04:43:03.409Z,61.28
2018-03-15T04:45:31.354Z,60.57
2018-03-15T04:47:59.295Z,59.86
2018-03-15T04:50:27.303Z,59.97
2018-03-15T04:52:55.451Z,59.73
2018-03-15T04:55:23.404Z,59.70
2018-03-15T04:57:51.294Z,60.53
2018-03-15T05:00:19.264Z,60.67
2018-03-15T05:02:47.163Z,60.90
2018-03-15T05:05:15.115Z,59.83
2018-03-15T05:07:43.079Z,60.09
2018-03-15T05:10:11.056Z,60.81
2018-03-15T05:12:38.981Z,60.52
2018-03-15T05:15:06.926Z,60.83
2018-03-15T05:17:34.869Z,61.08
2018-03-15T05:20:02.821Z,61.36
2018-03-15T05:22:30.770Z,71.11
2018-03-15T05:24:58.786Z,68.19
2018-03-15T05:27:26.749Z,69.09
2018-03-15T05:29:54.741Z,66.72
2018-03-15T05:32:22.728Z,66.19
2018-03-15T05:34:50.679Z,65.03
2018-03-15T05:37:18.681Z,64.14
2018-03-15T05:39:46.706Z,61.83
2018-03-15T05:42:14.729Z,60.49
2018-03-15T05:44:42.618Z,63.57
2018-03-15T05:47:10.572Z,60.94
2018-03-15T05:49:38.500Z,59.13
2018-03-15T05:52:06.897Z,62.15
2018-03-15T05:54:35.221Z,63.60
2018-03-15T05:57:03.125Z,62.96
2018-03-15T05:59:31.041Z,60.30
2018-03-15T06:01:58.999Z,62.94
2018-03-15T06:04:26.928Z,60.11
2018-03-15T06:06:54.927Z,57.32
2018-03-15T06:09:23.105Z,58.45
2018-03-15T06:11:51.133Z,58.33
2018-03-15T06:14:19.102Z,58.58
2018-03-15T06:16:47.019Z,54.89
2018-03-15T06:19:14.968Z,52.71
2018-03-15T06:21:42.968Z,52.46
2018-03-15T06:24:10.929Z,53.97
2018-03-15T06:26:38.903Z,55.27
2018-03-15T06:29:06.866Z,53.06
2018-03-15T06:31:34.833Z,52.84
2018-03-15T06:34:02.852Z,52.39
2018-03-15T06:36:30.777Z,50.80
2018-03-15T06:38:58.741Z,50.69
2018-03-15T06:41:26.721Z,49.68
2018-03-15T06:43:54.759Z,49.03
2018-03-15T06:46:22.699Z,48.13
2018-03-15T06:48:50.646Z,48.12
2018-03-15T06:51:18.644Z,46.73
2018-03-15T06:53:46.574Z,48.15
2018-03-15T06:56:14.983Z,46.17
2018-03-15T06:58:42.954Z,47.53
2018-03-15T07:01:10.954Z,46.55
2018-03-15T07:03:38.925Z,44.72
2018-03-15T07:06:06.821Z,43.35
2018-03-15T07:08:34.756Z,45.57
2018-03-15T07:11:02.722Z,41.88
2018-03-15T07:13:30.672Z,41.42
2018-03-15T07:15:58.632Z,40.81
2018-03-15T07:18:26.557Z,39.33
2018-03-15T07:20:54.558Z,40.06
2018-03-15T07:23:22.504Z,40.20
2018-03-15T07:25:50.417Z,40.59
2018-03-15T07:28:18.429Z,37.49
2018-03-15T07:30:46.333Z,37.97
2018-03-15T07:33:14.329Z,37.22
2018-03-15T07:35:42.293Z,36.09
2018-03-15T07:38:10.319Z,36.77
2018-03-15T07:40:38.272Z,36.11
2018-03-15T07:43:06.264Z,36.98
2018-03-15T07:45:34.198Z,36.24
2018-03-15T07:48:02.157Z,35.54
2018-03-15T07:50:30.069Z,34.57
2018-03-15T07:52:58.075Z,35.74
2018-03-15T07:55:26.030Z,37.19
2018-03-15T07:57:54.430Z,36.22
2018-03-15T08:00:22.334Z,35.25
2018-03-15T08:02:50.284Z,34.40
2018-03-15T08:05:18.255Z,35.28
2018-03-15T08:07:46.212Z,33.84
2018-03-15T08:10:14.151Z,32.61
2018-03-15T08:12:42.116Z,33.97
2018-03-15T08:15:09.992Z,33.99
2018-03-15T08:17:37.926Z,31.98
2018-03-15T08:20:05.868Z,34.20
2018-03-15T08:22:33.837Z,34.94
2018-03-15T08:25:01.751Z,33.54
2018-03-15T08:27:29.665Z,29.03
2018-03-15T08:29:57.619Z,28.94
2018-03-15T08:32:25.571Z,27.36
2018-03-15T08:34:53.556Z,25.85
2018-03-15T08:37:21.551Z,25.00
2018-03-15T08:39:49.563Z,25.25
2018-03-15T08:42:17.476Z,26.09
2018-03-15T08:44:45.426Z,26.40
2018-03-15T08:47:13.337Z,26.13
2018-03-15T08:49:41.375Z,25.42
2018-03-15T08:52:09.348Z,25.59
2018-03-15T08:54:37.359Z,25.45
2018-03-15T08:57:05.353Z,23.92
2018-03-15T08:59:33.832Z,24.45
2018-03-15T09:02:01.781Z,23.08
2018-03-15T09:04:29.732Z,23.87
2018-03-15T09:06:57.753Z,20.97
2018-03-15T09:09:25.855Z,21.15
2018-03-15T09:11:53.777Z,21.31
2018-03-15T09:14:21.698Z,22.43
2018-03-15T09:16:49.654Z,22.03
2018-03-15T09:19:17.625Z,20.79
2018-03-15T09:21:45.604Z,21.41
2018-03-15T09:24:13.561Z,20.63
2018-03-15T09:26:41.560Z,21.35
2018-03-15T09:29:09.517Z,23.54
2018-03-15T09:31:37.576Z,24.10
2018-03-15T09:34:05.624Z,24.32
2018-03-15T09:36:33.607Z,22.60
2018-03-15T09:39:01.614Z,26.03
2018-03-15T09:41:29.684Z,23.33
2018-03-15T09:43:57.704Z,25.70
2018-03-15T09:46:25.744Z,24.98
2018-03-15T09:48:53.661Z,25.21
2018-03-15T09:51:21.631Z,26.96
2018-03-15T09:53:49.575Z,28.75
2018-03-15T09:56:17.645Z,28.92
2018-03-15T09:58:45.636Z,24.51
2018-03-15T10:01:13.775Z,23.77
2018-03-15T10:03:41.727Z,22.29
2018-03-15T10:06:09.645Z,27.58
2018-03-15T10:08:37.621Z,27.52
2018-03-15T10:11:05.602Z,27.57
2018-03-15T10:13:33.608Z,28.10
2018-03-15T10:16:01.562Z,28.45
2018-03-15T10:18:29.573Z,29.35
2018-03-15T10:20:57.505Z,28.59
2018-03-15T10:23:25.469Z,28.58
2018-03-15T10:25:53.481Z,27.05
2018-03-15T10:28:21.495Z,25.67
2018-03-15T10:30:49.474Z,23.27
2018-03-15T10:33:23.034Z,24.24
2018-03-15T10:35:51.014Z,24.55
2018-03-15T10:38:18.991Z,25.14
2018-03-15T10:40:46.963Z,25.17
2018-03-15T10:43:14.943Z,25.06
2018-03-15T10:45:42.937Z,25.33
2018-03-15T10:48:10.878Z,25.53
2018-03-15T10:50:38.891Z,27.00
2018-03-15T10:53:06.887Z,26.50
2018-03-15T10:55:34.852Z,26.91
2018-03-15T10:58:02.762Z,27.32
2018-03-15T11:00:36.495Z,25.56
2018-03-15T11:03:10.413Z,25.37
2018-03-15T11:05:43.946Z,25.63
2018-03-15T11:08:17.486Z,25.93
2018-03-15T11:10:45.801Z,25.97
2018-03-15T11:13:13.781Z,27.04
2018-03-15T11:15:41.761Z,26.25
2018-03-15T11:18:09.761Z,26.46
2018-03-15T11:20:37.735Z,28.05
2018-03-15T11:23:05.772Z,26.65
2018-03-15T11:25:33.773Z,29.32
2018-03-15T11:28:01.895Z,29.70
2018-03-15T11:30:29.890Z,28.96
2018-03-15T11:32:57.858Z,29.51
2018-03-15T11:35:25.872Z,26.78
2018-03-15T11:37:53.964Z,30.27
2018-03-15T11:40:22.013Z,26.18
2018-03-15T11:42:50.065Z,25.74
2018-03-15T11:45:18.078Z,22.24
2018-03-15T11:47:46.085Z,21.37
2018-03-15T11:50:14.134Z,20.57
2018-03-15T11:52:42.113Z,18.91
2018-03-15T11:55:10.722Z,19.19
2018-03-15T11:57:38.717Z,20.84
2018-03-15T12:00:06.754Z,21.99
2018-03-15T12:02:34.692Z,22.08
2018-03-15T12:05:03.097Z,22.01
2018-03-15T12:07:31.048Z,21.98
2018-03-15T12:09:59.032Z,20.79
2018-03-15T12:12:26.963Z,19.89
2018-03-15T12:14:54.956Z,20.22
2018-03-15T12:17:22.985Z,23.44
2018-03-15T12:19:50.951Z,21.27
2018-03-15T12:22:18.929Z,21.26
2018-03-15T12:24:46.960Z,21.26
2018-03-15T12:27:14.920Z,20.40
2018-03-15T12:29:42.846Z,20.69
2018-03-15T12:32:10.759Z,19.48
2018-03-15T12:34:38.687Z,19.05
2018-03-15T12:37:06.621Z,19.05
2018-03-15T12:39:34.606Z,18.98
2018-03-15T12:42:02.564Z,18.68
2018-03-15T12:44:30.532Z,21.20
2018-03-15T12:46:58.501Z,22.29
2018-03-15T12:49:26.478Z,21.75
2018-03-15T12:51:54.631Z,22.69
2018-03-15T12:54:22.575Z,22.20
2018-03-15T12:56:50.522Z,21.91
2018-03-15T12:59:18.525Z,22.14
2018-03-15T13:01:46.465Z,22.27
2018-03-15T13:04:14.389Z,22.36
2018-03-15T13:06:42.489Z,21.73
2018-03-15T13:09:10.424Z,19.78
2018-03-15T13:11:38.390Z,21.19
2018-03-15T13:14:06.354Z,22.44
2018-03-15T13:16:34.251Z,21.26
2018-03-15T13:19:02.330Z,23.02
2018-03-15T13:21:30.309Z,23.48
2018-03-15T13:23:58.221Z,21.28
2018-03-15T13:26:26.206Z,20.98
2018-03-15T13:28:54.163Z,21.56
2018-03-15T13:31:22.145Z,19.86
2018-03-15T13:33:50.070Z,19.88
2018-03-15T13:36:18.028Z,20.17
2018-03-15T13:38:45.998Z,19.39
2018-03-15T13:41:13.930Z,21.40
2018-03-15T13:43:41.916Z,20.58
2018-03-15T13:46:09.862Z,20.94
2018-03-15T13:48:37.857Z,19.97
2018-03-15T13:51:05.865Z,21.32
2018-03-15T13:53:33.875Z,21.70
2018-03-15T13:56:01.805Z,23.49
2018-03-15T13:58:29.800Z,22.72
2018-03-15T14:00:57.709Z,23.05
2018-03-15T14:03:25.753Z,21.82
2018-03-15T14:05:53.842Z,22.91
2018-03-15T14:08:22.213Z,25.19
2018-03-15T14:10:50.178Z,25.45
2018-03-15T14:13:18.668Z,25.92
2018-03-15T14:15:47.053Z,24.76
2018-03-15T14:18:15.830Z,25.68
2018-03-15T14:20:44.309Z,24.72
2018-03-15T14:23:13.015Z,23.47
2018-03-15T14:25:41.165Z,23.82
2018-03-15T14:28:09.649Z,22.71
2018-03-15T14:30:38.114Z,23.05
2018-03-15T14:33:06.709Z,23.16
2018-03-15T14:35:34.990Z,22.26
2018-03-15T14:38:03.677Z,22.23
2018-03-15T14:40:32.154Z,22.39
2018-03-15T14:43:00.527Z,22.89
2018-03-15T14:45:28.893Z,22.14
2018-03-15T14:47:57.081Z,23.65
2018-03-15T14:50:25.526Z,22.85
2018-03-15T14:52:53.920Z,24.11
2018-03-15T14:55:22.306Z,23.79
2018-03-15T14:57:50.601Z,24.01
2018-03-15T15:00:18.766Z,24.73
2018-03-15T15:02:47.409Z,24.13
2018-03-15T15:05:15.522Z,24.65
2018-03-15T15:07:43.694Z,25.95
2018-03-15T15:10:12.490Z,25.97
2018-03-15T15:12:40.477Z,24.91
2018-03-15T15:15:08.464Z,25.77
2018-03-15T15:17:36.904Z,26.87
2018-03-15T15:20:05.280Z,27.65
2018-03-15T15:22:33.663Z,28.25
2018-03-15T15:25:01.662Z,28.50
2018-03-15T15:27:29.646Z,28.36
2018-03-15T15:29:57.618Z,29.38
2018-03-15T15:32:25.557Z,28.74
2018-03-15T15:34:54.016Z,28.61
2018-03-15T15:37:22.009Z,29.11
2018-03-15T15:39:49.933Z,29.49
2018-03-15T15:42:17.879Z,30.23
2018-03-15T15:44:45.876Z,30.35
2018-03-15T15:47:13.912Z,30.09
2018-03-15T15:49:41.914Z,31.32
2018-03-15T15:52:09.917Z,31.38
2018-03-15T15:54:37.946Z,31.53
2018-03-15T15:57:05.952Z,31.46
2018-03-15T15:59:33.945Z,31.40
2018-03-15T16:02:01.877Z,31.86
2018-03-15T16:04:29.780Z,32.38
2018-03-15T16:06:57.763Z,32.04
2018-03-15T16:09:25.726Z,32.43
2018-03-15T16:11:54.048Z,32.28
2018-03-15T16:14:22.045Z,31.88
2018-03-15T16:16:49.950Z,32.01
2018-03-15T16:19:19.271Z,32.17
2018-03-15T16:21:47.270Z,32.29
2018-03-15T16:24:15.290Z,32.26
2018-03-15T16:26:43.233Z,32.45
2018-03-15T16:29:11.244Z,32.40
2018-03-15T16:31:39.256Z,31.57
2018-03-15T16:34:07.305Z,31.96
2018-03-15T16:36:35.221Z,31.10
2018-03-15T16:39:03.310Z,30.24
2018-03-15T16:41:31.336Z,30.98
2018-03-15T16:43:59.316Z,30.72
2018-03-15T16:46:27.260Z,31.22
2018-03-15T16:48:55.288Z,32.04
2018-03-15T16:51:23.248Z,31.96
2018-03-15T16:53:51.245Z,32.14
2018-03-15T16:56:19.221Z,32.80
2018-03-15T16:58:47.167Z,33.02
2018-03-15T17:01:15.174Z,33.18
2018-03-15T17:03:43.179Z,32.19
2018-03-15T17:06:11.145Z,32.25
2018-03-15T17:08:39.115Z,32.64
2018-03-15T17:11:07.065Z,31.22
2018-03-15T17:13:35.297Z,32.45
2018-03-15T17:16:03.385Z,31.19
2018-03-15T17:18:31.362Z,31.19
2018-03-15T17:20:59.309Z,30.97
2018-03-15T17:23:27.289Z,33.80
2018-03-15T17:25:55.248Z,34.60
2018-03-15T17:28:23.234Z,34.57
2018-03-15T17:30:51.217Z,34.05
2018-03-15T17:33:19.166Z,34.93
2018-03-15T17:35:47.141Z,34.60
2018-03-15T17:38:15.052Z,33.69
2018-03-15T17:40:43.013Z,35.03
2018-03-15T17:43:11.110Z,34.54
2018-03-15T17:45:39.387Z,35.36
2018-03-15T17:48:08.174Z,36.00
2018-03-15T17:50:36.457Z,35.29
2018-03-15T17:53:04.841Z,35.27
2018-03-15T17:55:33.102Z,34.73
2018-03-15T17:58:01.606Z,34.28
2018-03-15T18:00:30.017Z,34.65
2018-03-15T18:02:59.482Z,33.68
2018-03-15T18:05:27.446Z,33.95
2018-03-15T18:07:55.438Z,34.87
2018-03-15T18:10:23.345Z,34.87
2018-03-15T18:12:51.367Z,34.09
2018-03-15T18:15:19.629Z,35.23
2018-03-15T18:17:47.683Z,35.37
2018-03-15T18:20:15.673Z,34.31
2018-03-15T18:22:43.677Z,35.04
2018-03-15T18:25:11.661Z,35.20
2018-03-15T18:27:40.095Z,35.58
2018-03-15T18:30:08.466Z,36.53
2018-03-15T18:32:37.046Z,35.69
2018-03-15T18:35:06.456Z,37.50
2018-03-15T18:37:35.132Z,38.48
2018-03-15T18:40:03.408Z,38.93
2018-03-15T18:42:31.685Z,39.87
2018-03-15T18:45:00.014Z,38.05
2018-03-15T18:47:28.478Z,37.63
2018-03-15T18:49:56.909Z,37.18
2018-03-15T18:52:25.189Z,36.77
2018-03-15T18:54:53.678Z,37.13
2018-03-15T18:57:22.059Z,37.54
2018-03-15T18:59:50.637Z,39.29
2018-03-15T19:02:19.120Z,38.85
2018-03-15T19:04:47.494Z,39.06
2018-03-15T19:07:15.670Z,38.18
2018-03-15T19:09:43.933Z,37.81
2018-03-15T19:12:12.376Z,38.92
2018-03-15T19:14:40.696Z,39.08
2018-03-15T19:17:09.421Z,39.84
2018-03-15T19:19:37.549Z,40.10
2018-03-15T19:22:05.933Z,41.60
2018-03-15T19:24:34.520Z,42.09
2018-03-15T19:27:04.016Z,42.28
2018-03-15T19:29:32.916Z,41.59
2018-03-15T19:32:01.083Z,39.75
2018-03-15T19:34:29.873Z,39.66
2018-03-15T19:36:58.558Z,41.23
2018-03-15T19:39:27.204Z,40.80
2018-03-15T19:41:55.536Z,40.52
2018-03-15T19:44:24.101Z,40.55
2018-03-15T19:46:52.885Z,41.32
2018-03-15T19:49:21.059Z,41.30
2018-03-15T19:51:49.540Z,41.50
2018-03-15T19:54:18.226Z,42.38
2018-03-15T19:56:46.675Z,43.34
2018-03-15T19:59:15.242Z,44.89
2018-03-15T20:01:43.768Z,43.44
2018-03-15T20:04:11.946Z,43.98
2018-03-15T20:06:40.427Z,46.49
2018-03-15T20:09:09.213Z,48.82
2018-03-15T20:11:37.442Z,46.50
2018-03-15T20:14:06.283Z,49.67
2018-03-15T20:16:34.809Z,46.27
2018-03-15T20:22:04.191Z,47.97
2018-03-15T20:24:33.221Z,46.85
2018-03-15T20:27:01.448Z,46.10
2018-03-15T20:29:30.023Z,44.80
2018-03-15T20:31:58.462Z,44.75
2018-03-15T20:34:27.198Z,44.73
2018-03-15T20:36:55.778Z,45.65
2018-03-15T20:39:29.977Z,47.89
2018-03-15T20:41:58.372Z,46.20
2018-03-15T20:44:26.746Z,45.59
2018-03-15T20:47:00.579Z,47.22
2018-03-15T20:49:29.451Z,47.20
2018-03-15T20:51:58.130Z,46.17
2018-03-15T20:54:26.409Z,46.58
2018-03-15T20:56:54.766Z,48.66
2018-03-15T20:59:23.066Z,47.01
2018-03-15T21:01:51.755Z,46.51
2018-03-15T21:04:19.933Z,48.75
2018-03-15T21:06:48.488Z,47.72
2018-03-15T21:09:16.922Z,47.20
2018-03-15T21:11:45.153Z,46.29
2018-03-15T21:14:13.444Z,48.36
2018-03-15T21:16:41.909Z,48.80
2018-03-15T21:19:10.117Z,48.53
2018-03-15T21:21:38.577Z,49.63
2018-03-15T21:24:07.049Z,50.02
2018-03-15T21:26:35.313Z,49.50
2018-03-15T21:29:03.697Z,49.13
2018-03-15T21:31:32.381Z,49.41
2018-03-15T21:34:00.674Z,48.11
2018-03-15T21:36:29.141Z,47.57
2018-03-15T21:38:57.933Z,46.68
2018-03-15T21:41:26.594Z,47.10
2018-03-15T21:43:54.853Z,47.71
2018-03-15T21:46:23.012Z,49.57
2018-03-15T21:48:51.241Z,49.00
2018-03-15T21:51:19.713Z,49.70
2018-03-15T21:53:48.295Z,48.05
2018-03-15T21:56:16.574Z,48.17
2018-03-15T21:58:44.831Z,50.72
2018-03-15T22:01:13.448Z,49.01
2018-03-15T22:03:42.018Z,47.91
2018-03-15T22:06:10.287Z,47.99
2018-03-15T22:08:38.764Z,47.72
2018-03-15T22:11:06.921Z,47.41
2018-03-15T22:13:35.425Z,47.63
2018-03-15T22:16:03.742Z,47.70
2018-03-15T22:18:31.855Z,47.45
2018-03-15T22:21:00.554Z,47.50
2018-03-15T22:23:29.028Z,47.91
2018-03-15T22:25:57.511Z,47.40
2018-03-15T22:28:25.881Z,48.27
2018-03-15T22:30:57.964Z,48.19
2018-03-15T22:33:26.437Z,49.88
2018-03-15T22:35:54.813Z,47.62
2018-03-15T22:38:23.128Z,48.01
2018-03-15T22:40:51.569Z,48.69
2018-03-15T22:43:20.270Z,48.47
2018-03-15T22:45:48.631Z,48.77
2018-03-15T22:48:16.810Z,48.44
2018-03-15T22:50:45.189Z,48.77
2018-03-15T22:53:13.640Z,50.64
2018-03-15T22:55:41.950Z,51.10
2018-03-15T22:58:10.218Z,49.10
2018-03-15T23:00:38.801Z,48.94
2018-03-15T23:03:07.276Z,49.13
2018-03-15T23:05:35.656Z,49.15
2018-03-15T23:08:04.350Z,49.75
2018-03-15T23:10:33.029Z,52.23
2018-03-15T23:13:01.512Z,52.89
2018-03-15T23:15:30.301Z,51.29
2018-03-15T23:17:58.783Z,50.37
2018-03-15T23:20:27.459Z,49.88
2018-03-15T23:22:55.848Z,50.09
2018-03-15T23:25:24.933Z,49.44
2018-03-15T23:27:53.315Z,49.33
2018-03-15T23:30:21.779Z,49.58
2018-03-15T23:32:50.267Z,49.70
2018-03-15T23:35:18.860Z,50.04
2018-03-15T23:37:47.336Z,49.60
2018-03-15T23:40:16.007Z,49.21
2018-03-15T23:42:44.396Z,49.75
2018-03-15T23:45:12.779Z,49.66
2018-03-15T23:47:41.260Z,49.58
2018-03-15T23:50:09.838Z,49.32
2018-03-15T23:52:38.207Z,49.56
2018-03-15T23:55:06.812Z,49.66
2018-03-15T23:57:35.433Z,52.02
